Time;durP1;ratioP1;P1;durP2;ratioP2;P2;SDS_P1;SDS_P2;PMS_P1;PMS_P2;Temp;Humidity;BMP_temperature;BMP_pressure;BME280_temperature;BME280_humidity;BME280_pressure;Samples;Min_cycle;Max_cycle;Signal;HPM_P1;HPM_P2
2021/10/26 00:01:39;;;;;;;47.30;30.90;;;11.70;99.90;;;;;;5049718;28;20103;-84
2021/10/26 00:04:11;;;;;;;48.45;30.98;;;11.70;99.90;;;;;;5057838;28;20090;-83
2021/10/26 00:06:38;;;;;;;50.77;31.27;;;11.70;99.90;;;;;;5080964;28;20398;-84
2021/10/26 00:09:05;;;;;;;49.10;30.33;;;11.70;99.90;;;;;;5056051;28;20040;-84
2021/10/26 00:11:32;;;;;;;52.53;32.50;;;11.70;99.90;;;;;;5051213;28;20047;-83
2021/10/26 00:13:58;;;;;;;52.13;32.33;;;11.70;99.90;;;;;;5078553;28;20115;-84
2021/10/26 00:16:31;;;;;;;51.95;31.92;;;11.70;99.90;;;;;;5038178;28;20072;-84
2021/10/26 00:18:58;;;;;;;49.00;32.60;;;11.70;99.90;;;;;;5062596;28;20110;-84
2021/10/26 00:21:24;;;;;;;50.17;31.27;;;11.70;99.90;;;;;;5055830;28;20040;-84
2021/10/26 00:23:50;;;;;;;53.08;33.20;;;11.70;99.90;;;;;;5058454;28;20107;-84
2021/10/26 00:26:18;;;;;;;55.70;32.45;;;11.70;99.90;;;;;;5042229;28;20385;-83
2021/10/26 00:28:44;;;;;;;54.38;32.25;;;11.70;99.90;;;;;;5034632;28;20037;-84
2021/10/26 00:31:09;;;;;;;58.40;34.75;;;11.70;99.90;;;;;;5035317;28;20043;-84
2021/10/26 00:33:35;;;;;;;52.50;32.53;;;11.70;99.90;;;;;;5053356;28;20044;-84
2021/10/26 00:36:01;;;;;;;56.28;33.55;;;11.70;99.90;;;;;;5046961;28;20047;-83
2021/10/26 00:38:27;;;;;;;53.67;33.97;;;11.60;99.90;;;;;;5038246;28;20044;-85
2021/10/26 00:40:52;;;;;;;52.65;33.40;;;11.60;99.90;;;;;;5069331;28;20040;-82
2021/10/26 00:43:18;;;;;;;61.60;34.45;;;11.70;99.90;;;;;;5036415;28;20495;-85
2021/10/26 00:45:44;;;;;;;59.75;34.08;;;11.60;99.90;;;;;;5071483;28;20571;-85
2021/10/26 00:48:10;;;;;;;59.35;35.78;;;11.60;99.90;;;;;;5057305;28;20061;-85
2021/10/26 00:50:36;;;;;;;55.45;34.78;;;11.60;99.90;;;;;;5018175;28;20036;-85
2021/10/26 00:53:02;;;;;;;57.17;34.80;;;11.60;99.90;;;;;;5019172;28;20036;-86
2021/10/26 00:55:28;;;;;;;59.95;35.20;;;11.60;99.90;;;;;;5083686;28;20123;-85
2021/10/26 00:57:54;;;;;;;55.25;34.05;;;11.60;99.90;;;;;;5038908;28;20075;-85
2021/10/26 01:00:21;;;;;;;56.40;34.50;;;11.60;99.90;;;;;;5078888;28;20036;-86
2021/10/26 01:02:47;;;;;;;57.03;34.10;;;11.70;99.90;;;;;;5052502;28;20041;-85
2021/10/26 01:05:14;;;;;;;59.88;34.33;;;11.70;99.90;;;;;;5022921;28;20040;-84
2021/10/26 01:07:40;;;;;;;57.47;35.10;;;11.60;99.90;;;;;;5026232;28;20463;-84
2021/10/26 01:10:08;;;;;;;59.05;35.33;;;11.60;99.90;;;;;;5075933;28;20035;-83
2021/10/26 01:12:36;;;;;;;59.15;35.35;;;11.50;99.90;;;;;;5080590;28;20127;-84
2021/10/26 01:15:03;;;;;;;55.75;35.55;;;11.50;99.90;;;;;;5093375;28;20415;-83
2021/10/26 01:17:28;;;;;;;68.47;38.05;;;11.50;99.90;;;;;;5045864;28;20036;-86
2021/10/26 01:19:56;;;;;;;66.07;37.47;;;11.40;99.90;;;;;;5036561;28;20051;-83
2021/10/26 01:22:26;;;;;;;62.03;38.10;;;11.40;99.90;;;;;;5058780;28;20490;-84
2021/10/26 01:24:52;;;;;;;66.75;38.90;;;11.40;99.90;;;;;;5072993;28;20079;-82
2021/10/26 01:27:20;;;;;;;66.53;38.53;;;11.30;99.90;;;;;;5105287;28;20029;-83
2021/10/26 01:29:46;;;;;;;66.35;40.22;;;11.30;99.90;;;;;;5063155;28;20096;-83
2021/10/26 01:32:14;;;;;;;66.15;39.22;;;11.30;99.90;;;;;;5044736;28;20044;-86
2021/10/26 01:34:43;;;;;;;69.15;39.80;;;11.30;99.90;;;;;;5017167;28;20041;-84
2021/10/26 01:37:10;;;;;;;63.30;38.42;;;11.30;99.90;;;;;;5092511;28;20439;-83
2021/10/26 01:39:37;;;;;;;66.47;39.95;;;11.30;99.90;;;;;;5049925;28;20037;-84
2021/10/26 01:42:04;;;;;;;67.65;39.22;;;11.40;99.90;;;;;;5047310;28;20047;-84
2021/10/26 01:44:30;;;;;;;61.17;37.42;;;11.40;99.90;;;;;;5033155;28;20044;-84
2021/10/26 01:46:55;;;;;;;63.00;39.40;;;11.40;99.90;;;;;;5046267;28;20041;-84
2021/10/26 01:49:25;;;;;;;72.65;39.60;;;11.40;99.90;;;;;;5049091;28;20545;-83
2021/10/26 01:51:53;;;;;;;69.90;39.47;;;11.40;99.90;;;;;;5052948;28;20123;-83
2021/10/26 01:54:19;;;;;;;70.22;39.72;;;11.40;99.90;;;;;;5047163;28;20095;-84
2021/10/26 01:56:46;;;;;;;72.40;39.42;;;11.40;99.90;;;;;;5041294;28;20396;-84
2021/10/26 01:59:15;;;;;;;66.90;39.10;;;11.40;99.90;;;;;;5078521;28;20036;-86
2021/10/26 02:01:44;;;;;;;68.80;39.15;;;11.40;99.90;;;;;;5040803;28;20043;-85
2021/10/26 02:04:10;;;;;;;68.55;38.17;;;11.50;99.90;;;;;;5056753;28;20123;-83
2021/10/26 02:06:35;;;;;;;73.00;39.45;;;11.50;99.90;;;;;;5046274;28;20514;-83
2021/10/26 02:09:04;;;;;;;66.78;38.97;;;11.40;99.90;;;;;;5068025;28;20040;-84
2021/10/26 02:11:30;;;;;;;64.15;39.75;;;11.50;99.90;;;;;;5061061;28;20119;-84
2021/10/26 02:13:56;;;;;;;68.47;39.33;;;11.50;99.90;;;;;;5052914;28;20116;-84
2021/10/26 02:16:22;;;;;;;72.20;39.65;;;11.50;99.90;;;;;;5036440;28;20245;-83
2021/10/26 02:18:47;;;;;;;66.45;39.70;;;11.50;99.90;;;;;;5046836;28;20079;-82
2021/10/26 02:21:13;;;;;;;69.05;40.25;;;11.50;99.90;;;;;;5035638;28;20044;-83
2021/10/26 02:23:45;;;;;;;72.18;39.72;;;11.50;99.90;;;;;;5039221;28;20068;-83
2021/10/26 02:26:12;;;;;;;67.85;41.17;;;11.50;99.90;;;;;;5052006;28;20036;-84
2021/10/26 02:28:38;;;;;;;67.82;40.13;;;11.50;99.90;;;;;;5035886;28;20033;-85
2021/10/26 02:31:04;;;;;;;74.43;41.17;;;11.40;99.90;;;;;;5018120;28;20060;-85
2021/10/26 02:33:35;;;;;;;76.53;41.72;;;11.40;99.90;;;;;;5031959;28;20036;-85
2021/10/26 02:36:04;;;;;;;66.97;38.95;;;11.50;99.90;;;;;;5059658;28;20032;-85
2021/10/26 02:38:33;;;;;;;68.43;40.50;;;11.40;99.90;;;;;;5043021;28;20453;-85
2021/10/26 02:41:04;;;;;;;71.25;40.15;;;11.40;99.90;;;;;;5066290;28;20123;-85
2021/10/26 02:43:44;;;;;;;78.20;41.90;;;11.40;99.90;;;;;;5052800;28;20047;-85
2021/10/26 02:46:19;;;;;;;74.35;40.38;;;11.40;99.90;;;;;;5074528;28;20036;-85
2021/10/26 02:48:48;;;;;;;78.57;41.00;;;11.40;99.90;;;;;;5051706;28;20097;-85
2021/10/26 02:51:20;;;;;;;76.05;41.58;;;11.40;99.90;;;;;;5052266;28;20048;-84
2021/10/26 02:54:06;;;;;;;;;;;;;;;;;;;;;
2021/10/26 02:56:32;;;;;;;73.38;39.60;;;11.40;99.90;;;;;;5035745;28;20528;-85
2021/10/26 02:59:24;;;;;;;72.32;41.35;;;11.40;99.90;;;;;;5063420;28;20037;-84
2021/10/26 03:02:04;;;;;;;71.72;40.90;;;11.40;99.90;;;;;;5039101;28;20458;-85
2021/10/26 03:04:42;;;;;;;75.10;40.60;;;11.40;99.90;;;;;;5032543;28;20047;-86
2021/10/26 03:07:11;;;;;;;74.18;40.65;;;11.40;99.90;;;;;;5020454;28;20040;-84
2021/10/26 03:09:57;;;;;;;73.95;40.70;;;11.40;99.90;;;;;;5079175;28;20047;-85
2021/10/26 03:12:23;;;;;;;74.30;40.17;;;11.40;99.90;;;;;;5061588;28;20036;-84
2021/10/26 03:14:55;;;;;;;72.32;40.05;;;11.30;99.90;;;;;;5065867;28;20445;-85
2021/10/26 03:17:25;;;;;;;70.75;37.60;;;11.30;99.90;;;;;;5084991;28;20112;-85
2021/10/26 03:19:54;;;;;;;71.93;38.05;;;11.30;99.90;;;;;;5073469;28;20044;-86
2021/10/26 03:22:23;;;;;;;73.45;37.72;;;11.30;99.90;;;;;;5051207;28;20587;-85
2021/10/26 03:25:45;;;;;;;64.67;36.30;;;11.30;99.90;;;;;;5035585;28;20078;-85
2021/10/26 03:28:14;;;;;;;69.07;35.38;;;11.30;99.90;;;;;;5031832;28;20279;-86
2021/10/26 03:30:40;;;;;;;62.25;34.35;;;11.20;99.90;;;;;;5050038;28;20035;-85
2021/10/26 03:33:17;;;;;;;64.90;34.97;;;11.20;99.90;;;;;;5064589;28;20806;-85
2021/10/26 03:35:46;;;;;;;63.13;34.58;;;11.20;99.90;;;;;;5032791;28;20290;-84
2021/10/26 03:38:11;;;;;;;76.97;38.13;;;11.10;99.90;;;;;;5045753;28;20093;-86
2021/10/26 03:40:48;;;;;;;70.63;36.97;;;11.10;99.90;;;;;;5042490;28;20039;-85
2021/10/26 03:43:40;;;;;;;77.85;38.80;;;11.10;99.90;;;;;;5032150;28;20142;-84
2021/10/26 03:46:06;;;;;;;72.50;39.53;;;11.00;99.90;;;;;;5000985;28;20049;-86
2021/10/26 03:48:34;;;;;;;77.10;39.67;;;11.00;99.90;;;;;;5052839;28;20400;-86
2021/10/26 03:51:08;;;;;;;72.68;38.28;;;11.00;99.90;;;;;;5070884;28;20040;-85
2021/10/26 03:53:43;;;;;;;79.28;37.55;;;10.90;99.90;;;;;;5065004;28;20036;-84
2021/10/26 03:56:11;;;;;;;72.38;37.20;;;10.90;99.90;;;;;;5061021;28;20052;-84
2021/10/26 03:58:43;;;;;;;71.50;36.40;;;10.90;99.90;;;;;;5043171;28;20399;-84
2021/10/26 04:01:10;;;;;;;67.07;35.92;;;10.80;99.90;;;;;;5039228;28;20029;-85
2021/10/26 04:03:39;;;;;;;72.18;36.33;;;10.80;99.90;;;;;;5034791;28;20067;-85
2021/10/26 04:06:07;;;;;;;76.53;37.25;;;10.80;99.90;;;;;;5055335;28;20082;-84
2021/10/26 04:08:53;;;;;;;71.20;36.22;;;10.80;99.90;;;;;;5066213;28;20032;-85
2021/10/26 04:11:55;;;;;;;77.07;39.15;;;10.70;99.90;;;;;;5071940;28;20032;-84
2021/10/26 04:14:39;;;;;;;80.63;38.03;;;10.70;99.90;;;;;;5072201;28;20040;-85
2021/10/26 04:17:24;;;;;;;79.63;38.15;;;10.70;99.90;;;;;;5035826;28;20044;-85
2021/10/26 04:19:59;;;;;;;74.05;37.70;;;10.70;99.90;;;;;;5047141;28;20033;-85
2021/10/26 04:22:34;;;;;;;81.13;40.08;;;10.70;99.90;;;;;;5064286;28;20036;-84
2021/10/26 04:25:08;;;;;;;87.75;40.90;;;10.70;99.90;;;;;;5021456;28;20564;-84
2021/10/26 04:27:34;;;;;;;80.70;39.25;;;10.70;99.90;;;;;;5050196;28;20399;-85
2021/10/26 04:30:04;;;;;;;87.85;41.13;;;10.70;99.90;;;;;;5038862;28;20081;-85
2021/10/26 04:32:31;;;;;;;89.50;41.38;;;10.60;99.90;;;;;;5068292;28;20104;-85
2021/10/26 04:34:57;;;;;;;78.88;39.25;;;10.60;99.90;;;;;;5032061;28;20129;-85
2021/10/26 04:37:22;;;;;;;81.82;40.33;;;10.60;99.90;;;;;;5015135;28;20120;-84
2021/10/26 04:39:48;;;;;;;81.00;40.13;;;10.60;99.90;;;;;;5050872;28;20461;-85
2021/10/26 04:42:14;;;;;;;87.85;41.10;;;10.60;99.90;;;;;;5027193;28;20046;-85
2021/10/26 04:44:39;;;;;;;79.45;40.38;;;10.60;99.90;;;;;;5033424;28;20043;-85
2021/10/26 04:47:08;;;;;;;88.60;40.88;;;10.60;99.90;;;;;;5011018;28;20224;-85
2021/10/26 04:49:34;;;;;;;89.50;42.28;;;10.60;99.90;;;;;;5048439;28;20034;-85
2021/10/26 04:52:01;;;;;;;85.28;41.83;;;10.60;99.90;;;;;;5029188;28;20037;-85
2021/10/26 04:54:28;;;;;;;91.93;42.95;;;10.50;99.90;;;;;;5039511;28;20032;-85
2021/10/26 04:56:54;;;;;;;94.38;42.78;;;10.50;99.90;;;;;;5058114;28;20325;-85
2021/10/26 04:59:20;;;;;;;92.00;43.75;;;10.50;99.90;;;;;;5022676;28;20075;-85
2021/10/26 05:01:46;;;;;;;96.53;43.78;;;10.50;99.90;;;;;;5065847;28;20541;-85
2021/10/26 05:04:12;;;;;;;101.20;44.35;;;10.40;99.90;;;;;;5025111;28;20043;-86
2021/10/26 05:06:38;;;;;;;96.50;42.35;;;10.40;99.90;;;;;;5033268;28;20028;-85
2021/10/26 05:09:04;;;;;;;88.95;43.63;;;10.40;99.90;;;;;;5059530;28;20119;-85
2021/10/26 05:11:30;;;;;;;97.97;44.40;;;10.40;99.90;;;;;;5047517;28;20120;-85
2021/10/26 05:14:27;;;;;;;94.38;42.30;;;10.30;99.90;;;;;;5049736;28;20124;-85
2021/10/26 05:16:54;;;;;;;99.80;43.58;;;10.30;99.90;;;;;;5042137;28;20045;-85
2021/10/26 05:19:24;;;;;;;94.63;43.72;;;10.30;99.90;;;;;;5029260;28;20343;-85
2021/10/26 05:21:51;;;;;;;100.50;43.10;;;10.30;99.90;;;;;;5045202;28;20373;-85
2021/10/26 05:24:17;;;;;;;103.47;46.00;;;10.30;99.90;;;;;;5053542;28;20041;-86
2021/10/26 05:26:58;;;;;;;103.43;43.72;;;10.30;99.90;;;;;;5075432;28;20032;-84
2021/10/26 05:29:25;;;;;;;104.10;44.95;;;10.30;99.90;;;;;;5078026;28;20032;-85
2021/10/26 05:31:53;;;;;;;98.00;44.95;;;10.30;99.90;;;;;;5010058;28;20033;-85
2021/10/26 05:34:19;;;;;;;94.10;43.05;;;10.30;99.90;;;;;;5034555;28;20036;-84
2021/10/26 05:36:47;;;;;;;92.60;42.75;;;10.40;99.90;;;;;;5029409;28;20095;-84
2021/10/26 05:39:13;;;;;;;88.53;42.78;;;10.40;99.90;;;;;;5063912;28;20036;-83
2021/10/26 05:41:42;;;;;;;99.43;42.53;;;10.50;99.90;;;;;;5077805;28;20050;-85
2021/10/26 05:44:16;;;;;;;96.97;41.97;;;10.50;99.90;;;;;;5047518;28;20036;-85
2021/10/26 05:46:42;;;;;;;95.55;41.78;;;10.50;99.90;;;;;;5040599;28;20045;-84
2021/10/26 05:49:07;;;;;;;93.82;40.15;;;10.50;99.90;;;;;;5031641;28;20473;-85
2021/10/26 05:51:33;;;;;;;93.95;40.90;;;10.60;99.90;;;;;;5032937;28;20036;-84
2021/10/26 05:53:59;;;;;;;85.75;38.40;;;10.60;99.90;;;;;;5030361;28;20118;-84
2021/10/26 05:56:25;;;;;;;88.80;39.38;;;10.70;99.90;;;;;;5029502;28;20095;-86
2021/10/26 05:58:53;;;;;;;84.85;39.38;;;10.70;99.90;;;;;;5018322;28;20111;-84
2021/10/26 06:01:28;;;;;;;82.63;38.33;;;10.70;99.90;;;;;;5064874;28;20406;-85
2021/10/26 06:03:54;;;;;;;89.75;38.78;;;10.70;99.90;;;;;;5050127;28;20531;-85
2021/10/26 06:06:21;;;;;;;82.07;36.70;;;10.80;99.90;;;;;;5041925;28;20113;-82
2021/10/26 06:08:49;;;;;;;87.72;36.25;;;10.80;99.90;;;;;;5045228;28;20044;-84
2021/10/26 06:11:18;;;;;;;80.97;35.47;;;10.80;99.90;;;;;;5031871;28;20040;-84
2021/10/26 06:13:48;;;;;;;77.18;35.55;;;10.80;99.90;;;;;;5028122;28;20119;-83
2021/10/26 06:16:14;;;;;;;82.57;35.67;;;10.80;99.90;;;;;;5068127;28;20582;-84
2021/10/26 06:18:40;;;;;;;73.95;33.85;;;10.80;99.90;;;;;;5056951;28;20116;-84
2021/10/26 06:21:05;;;;;;;77.68;34.80;;;10.80;99.90;;;;;;5064811;28;20037;-84
2021/10/26 06:23:31;;;;;;;79.35;34.78;;;10.90;99.90;;;;;;5039922;28;20135;-85
2021/10/26 06:26:01;;;;;;;80.25;34.08;;;10.90;99.90;;;;;;5050190;28;20123;-84
2021/10/26 06:28:27;;;;;;;73.55;31.58;;;10.90;99.90;;;;;;5048101;28;20033;-83
2021/10/26 06:30:53;;;;;;;75.18;35.10;;;10.90;99.90;;;;;;5067764;28;20274;-85
2021/10/26 06:33:19;;;;;;;76.10;33.03;;;10.90;99.90;;;;;;5046183;28;20032;-85
2021/10/26 06:35:45;;;;;;;72.97;34.20;;;10.90;99.90;;;;;;5067921;28;20521;-84
2021/10/26 06:38:11;;;;;;;78.68;33.75;;;10.90;99.90;;;;;;5032804;28;20028;-85
2021/10/26 06:40:37;;;;;;;81.80;34.67;;;10.90;99.90;;;;;;5059212;28;20071;-86
2021/10/26 06:43:03;;;;;;;73.57;33.30;;;10.90;99.90;;;;;;5033561;28;20453;-84
2021/10/26 06:45:29;;;;;;;73.68;33.72;;;10.90;99.90;;;;;;5042775;28;20052;-84
2021/10/26 06:47:55;;;;;;;73.68;33.00;;;11.00;99.90;;;;;;5042962;28;20419;-83
2021/10/26 06:50:21;;;;;;;68.25;32.83;;;11.00;99.90;;;;;;5062774;28;20395;-83
2021/10/26 06:52:49;;;;;;;76.50;35.13;;;11.00;99.90;;;;;;5036719;28;20033;-86
2021/10/26 06:55:19;;;;;;;80.78;34.67;;;11.00;99.90;;;;;;5050484;28;20032;-85
2021/10/26 06:57:48;;;;;;;81.80;35.80;;;11.00;99.90;;;;;;5050574;28;20068;-85
2021/10/26 07:00:15;;;;;;;88.20;35.22;;;11.00;99.90;;;;;;5062188;28;20048;-84
2021/10/26 07:02:55;;;;;;;82.90;36.45;;;11.00;99.90;;;;;;5057499;28;20120;-85
2021/10/26 07:05:23;;;;;;;87.97;36.97;;;11.00;99.90;;;;;;5030024;28;20041;-84
2021/10/26 07:07:50;;;;;;;86.43;35.63;;;11.00;99.90;;;;;;5062254;28;20399;-85
2021/10/26 07:10:16;;;;;;;81.03;35.45;;;11.10;99.90;;;;;;5027262;28;20128;-86
2021/10/26 07:12:43;;;;;;;81.10;35.92;;;11.10;99.90;;;;;;5073157;28;20491;-84
2021/10/26 07:15:10;;;;;;;76.85;35.58;;;11.10;99.90;;;;;;5035642;28;20091;-84
2021/10/26 07:17:37;;;;;;;77.38;33.67;;;11.10;99.90;;;;;;5017076;28;20041;-83
2021/10/26 07:20:05;;;;;;;71.97;34.45;;;11.10;99.90;;;;;;5063237;28;20345;-84
2021/10/26 07:22:31;;;;;;;74.07;34.08;;;11.20;99.90;;;;;;5050531;28;20040;-85
2021/10/26 07:24:58;;;;;;;78.47;36.45;;;11.20;99.90;;;;;;5058635;28;20051;-84
2021/10/26 07:27:27;;;;;;;78.32;35.47;;;11.20;99.90;;;;;;5046558;28;20039;-85
2021/10/26 07:29:56;;;;;;;73.95;35.80;;;11.20;99.90;;;;;;5059838;28;20036;-85
2021/10/26 07:32:22;;;;;;;80.82;36.63;;;11.20;99.90;;;;;;5058493;28;20032;-85
2021/10/26 07:34:49;;;;;;;76.10;36.13;;;11.20;99.90;;;;;;5046607;28;20124;-85
2021/10/26 07:37:17;;;;;;;76.72;35.70;;;11.30;99.90;;;;;;5063838;28;20040;-85
2021/10/26 07:39:47;;;;;;;78.18;37.10;;;11.30;99.90;;;;;;5041914;28;20518;-84
2021/10/26 07:42:15;;;;;;;81.40;36.45;;;11.30;99.90;;;;;;5075625;28;20044;-84
2021/10/26 07:44:42;;;;;;;73.95;37.05;;;11.30;99.90;;;;;;5083443;28;20074;-85
2021/10/26 07:47:09;;;;;;;72.72;35.33;;;11.30;99.90;;;;;;5037095;28;20040;-83
2021/10/26 07:49:35;;;;;;;73.00;34.90;;;11.30;99.90;;;;;;5047241;28;20039;-84
2021/10/26 07:52:04;;;;;;;69.45;35.53;;;11.40;99.90;;;;;;5060527;28;20059;-85
2021/10/26 07:54:30;;;;;;;78.13;34.30;;;11.40;99.90;;;;;;5075156;28;20036;-84
2021/10/26 07:56:55;;;;;;;70.32;34.13;;;11.40;99.90;;;;;;5060580;28;20353;-84
2021/10/26 07:59:21;;;;;;;70.32;34.15;;;11.50;99.90;;;;;;5067734;28;20499;-85
2021/10/26 08:01:48;;;;;;;74.63;34.00;;;11.50;99.90;;;;;;5029565;28;20068;-84
2021/10/26 08:04:14;;;;;;;67.68;34.28;;;11.50;99.90;;;;;;5072317;28;20450;-84
2021/10/26 08:06:42;;;;;;;68.85;34.70;;;11.50;99.90;;;;;;5045664;28;20037;-85
2021/10/26 08:09:08;;;;;;;67.50;36.25;;;11.50;99.90;;;;;;5024222;28;20036;-86
2021/10/26 08:11:35;;;;;;;69.18;34.10;;;11.50;99.90;;;;;;5039046;28;20438;-84
2021/10/26 08:14:02;;;;;;;70.43;33.83;;;11.50;99.90;;;;;;5046413;28;20040;-85
2021/10/26 08:16:28;;;;;;;61.55;31.75;;;11.60;99.90;;;;;;5076339;28;20064;-83
2021/10/26 08:18:54;;;;;;;63.78;32.33;;;11.60;99.90;;;;;;5043745;28;20087;-83
2021/10/26 08:21:19;;;;;;;76.43;35.92;;;11.60;99.90;;;;;;5017263;28;20037;-85
2021/10/26 08:23:46;;;;;;;65.82;32.65;;;11.50;99.90;;;;;;5053658;28;20047;-83
2021/10/26 08:26:19;;;;;;;70.35;34.65;;;11.60;99.90;;;;;;5037043;28;20048;-86
2021/10/26 08:28:47;;;;;;;66.90;32.75;;;11.60;99.90;;;;;;5038319;28;20045;-86
2021/10/26 08:31:19;;;;;;;71.32;35.75;;;11.60;99.90;;;;;;5030147;28;20557;-85
2021/10/26 08:34:09;;;;;;;54.65;32.53;;;11.60;99.90;;;;;;5029277;28;20064;-84
2021/10/26 08:36:36;;;;;;;59.53;30.65;;;11.60;99.90;;;;;;5053866;28;20040;-84
2021/10/26 08:39:03;;;;;;;57.72;29.95;;;11.70;99.90;;;;;;5052795;28;20130;-84
2021/10/26 08:41:32;;;;;;;56.90;30.30;;;11.70;99.90;;;;;;5040843;28;20036;-84
2021/10/26 08:43:58;;;;;;;60.17;31.50;;;11.70;99.90;;;;;;5071712;28;20075;-86
2021/10/26 08:46:24;;;;;;;57.05;28.83;;;11.70;99.90;;;;;;5027323;28;20041;-84
2021/10/26 08:48:51;;;;;;;58.88;29.10;;;11.70;99.90;;;;;;5071760;28;20028;-85
2021/10/26 08:51:18;;;;;;;51.65;29.83;;;11.80;99.90;;;;;;5079467;28;20028;-85
2021/10/26 08:53:45;;;;;;;50.13;28.42;;;11.80;99.90;;;;;;5081371;28;20818;-84
2021/10/26 08:56:11;;;;;;;59.10;29.38;;;11.80;99.90;;;;;;5033574;28;21347;-84
2021/10/26 08:58:37;;;;;;;57.92;28.75;;;11.80;99.90;;;;;;5059264;28;20504;-82
2021/10/26 09:01:04;;;;;;;53.28;27.73;;;11.90;99.90;;;;;;5015343;28;20129;-84
2021/10/26 09:03:37;;;;;;;57.15;28.85;;;12.00;99.90;;;;;;5049114;28;20940;-85
2021/10/26 09:06:03;;;;;;;;;;;12.00;99.90;;;;;;5063394;28;20048;-83
2021/10/26 09:08:29;;;;;;;49.38;25.90;;;12.10;99.90;;;;;;5053070;28;19916;-80
2021/10/26 09:11:03;;;;;;;57.97;28.13;;;12.10;99.90;;;;;;5046154;28;20843;-83
2021/10/26 09:19:26;;;;;;;49.47;26.13;;;12.10;99.90;;;;;;5046250;28;20052;-83
2021/10/26 09:22:03;;;;;;;51.38;26.75;;;12.10;99.90;;;;;;5075254;28;20032;-83
2021/10/26 09:24:30;;;;;;;51.92;27.60;;;12.10;99.90;;;;;;5031682;28;20966;-84
2021/10/26 09:27:04;;;;;;;48.00;26.27;;;12.00;99.90;;;;;;5019956;28;20049;-83
2021/10/26 09:29:41;;;;;;;45.60;26.48;;;12.00;99.90;;;;;;5032185;28;20090;-84
2021/10/26 09:32:31;;;;;;;55.22;26.15;;;12.00;99.90;;;;;;5033384;28;20032;-82
2021/10/26 09:35:04;;;;;;;45.05;25.45;;;12.00;99.90;;;;;;5027296;28;20057;-82
2021/10/26 09:37:56;;;;;;;51.15;24.80;;;12.10;99.90;;;;;;5054866;28;20164;-81
2021/10/26 09:40:35;;;;;;;46.40;23.98;;;12.10;99.90;;;;;;5027146;28;20041;-84
2021/10/26 09:43:06;;;;;;;45.17;24.33;;;12.20;99.90;;;;;;5082511;27;20045;-82
2021/10/26 09:45:32;;;;;;;49.38;24.10;;;12.30;99.90;;;;;;5037998;28;20040;-84
2021/10/26 09:48:12;;;;;;;46.55;24.08;;;12.40;99.90;;;;;;5046988;28;20052;-83
2021/10/26 09:50:38;;;;;;;45.67;23.13;;;12.50;99.90;;;;;;5071028;28;20041;-84
2021/10/26 09:53:15;;;;;;;46.03;24.27;;;12.60;99.90;;;;;;5054635;28;20375;-82
2021/10/26 09:55:50;;;;;;;49.55;24.70;;;12.70;99.90;;;;;;5040802;28;20167;-83
2021/10/26 09:58:20;;;;;;;45.63;22.83;;;12.70;99.90;;;;;;5035527;28;20124;-84
2021/10/26 10:00:48;;;;;;;48.35;23.58;;;12.80;99.90;;;;;;5080583;28;20391;-83
2021/10/26 10:03:26;;;;;;;41.67;22.10;;;12.90;99.90;;;;;;5033446;28;20131;-82
2021/10/26 10:05:53;;;;;;;46.65;23.65;;;12.90;99.90;;;;;;5013034;28;20447;-82
2021/10/26 10:08:24;;;;;;;40.65;22.38;;;12.90;99.90;;;;;;5027303;28;20029;-80
2021/10/26 10:10:56;;;;;;;42.63;21.17;;;13.00;99.90;;;;;;5070173;28;22765;-84
2021/10/26 10:13:23;;;;;;;37.17;20.08;;;13.10;99.90;;;;;;5041132;28;20691;-82
2021/10/26 10:15:50;;;;;;;43.70;21.27;;;13.10;99.90;;;;;;5060919;28;20036;-83
2021/10/26 10:18:21;;;;;;;33.63;18.65;;;13.20;99.90;;;;;;5011401;28;20041;-83
2021/10/26 10:20:55;;;;;;;40.28;20.02;;;13.20;99.90;;;;;;5033722;28;20115;-82
2021/10/26 10:23:23;;;;;;;36.33;19.80;;;13.10;99.90;;;;;;5047029;28;20044;-83
2021/10/26 10:25:49;;;;;;;40.38;20.27;;;13.10;99.90;;;;;;5053306;28;20084;-84
2021/10/26 10:28:20;;;;;;;38.95;21.13;;;13.10;99.90;;;;;;5057475;28;20101;-85
2021/10/26 10:30:47;;;;;;;37.10;19.85;;;13.20;99.90;;;;;;5037780;28;20040;-83
2021/10/26 10:33:15;;;;;;;34.72;19.00;;;13.20;99.90;;;;;;5056895;28;20586;-83
2021/10/26 10:35:43;;;;;;;31.75;17.95;;;13.30;99.90;;;;;;5046579;28;20047;-83
2021/10/26 10:38:10;;;;;;;38.83;17.40;;;13.30;99.90;;;;;;5031412;28;20037;-82
2021/10/26 10:40:38;;;;;;;37.00;17.65;;;13.30;99.90;;;;;;5037594;28;20047;-83
2021/10/26 10:43:04;;;;;;;33.15;17.05;;;13.40;99.90;;;;;;5041745;28;20032;-84
2021/10/26 10:45:34;;;;;;;34.83;18.15;;;13.40;99.90;;;;;;5014126;28;20046;-82
2021/10/26 10:48:02;;;;;;;36.22;18.75;;;13.50;99.90;;;;;;5077387;28;20043;-83
2021/10/26 10:50:37;;;;;;;31.48;16.92;;;13.60;99.90;;;;;;5045712;28;20625;-85
2021/10/26 10:53:06;;;;;;;31.52;16.63;;;13.60;99.90;;;;;;5063025;28;20044;-83
2021/10/26 10:55:33;;;;;;;30.52;16.23;;;13.60;99.90;;;;;;5042703;28;20047;-85
2021/10/26 10:58:25;;;;;;;31.58;16.13;;;13.70;99.90;;;;;;5046932;28;20033;-82
2021/10/26 11:00:56;;;;;;;35.87;16.60;;;13.70;99.90;;;;;;5046318;28;20046;-81
2021/10/26 11:03:33;;;;;;;31.00;15.90;;;13.80;99.90;;;;;;5046583;28;20091;-85
2021/10/26 11:06:01;;;;;;;38.35;15.00;;;13.80;99.90;;;;;;5027609;28;20068;-83
2021/10/26 11:08:54;;;;;;;29.30;15.55;;;13.90;99.90;;;;;;5025212;28;20441;-82
2021/10/26 11:11:19;;;;;;;31.73;15.70;;;13.90;99.90;;;;;;5025583;28;20220;-83
2021/10/26 11:13:45;;;;;;;29.92;15.20;;;13.80;99.90;;;;;;5073014;28;20370;-83
2021/10/26 11:16:12;;;;;;;33.83;15.32;;;13.80;99.90;;;;;;5033841;28;20032;-84
2021/10/26 11:18:39;;;;;;;36.75;15.75;;;13.80;99.90;;;;;;5020971;28;20348;-84
2021/10/26 11:21:22;;;;;;;26.33;14.13;;;13.80;99.90;;;;;;5062233;28;20040;-82
2021/10/26 11:24:09;;;;;;;32.45;15.93;;;13.70;99.90;;;;;;5041314;28;20032;-83
2021/10/26 11:26:39;;;;;;;26.80;14.82;;;13.80;99.90;;;;;;5053400;28;20048;-84
2021/10/26 11:29:07;;;;;;;25.55;14.13;;;13.80;99.90;;;;;;5075126;28;20032;-84
2021/10/26 11:31:46;;;;;;;25.88;13.30;;;13.80;99.90;;;;;;5050584;28;20037;-83
2021/10/26 11:34:26;;;;;;;30.50;13.45;;;13.90;99.90;;;;;;5045784;28;20040;-83
2021/10/26 11:37:12;;;;;;;27.58;13.73;;;13.80;99.90;;;;;;5045595;28;20033;-85
2021/10/26 11:39:39;;;;;;;28.48;14.30;;;13.80;99.90;;;;;;5039420;28;20560;-81
2021/10/26 11:42:13;;;;;;;28.58;13.88;;;13.80;99.90;;;;;;5061490;28;20044;-84
2021/10/26 11:44:39;;;;;;;30.75;14.82;;;13.80;99.90;;;;;;5057491;28;20036;-83
2021/10/26 11:47:06;;;;;;;31.13;14.45;;;13.80;99.90;;;;;;5050522;28;20102;-85
2021/10/26 11:49:32;;;;;;;30.80;15.88;;;13.80;99.90;;;;;;5032731;28;20036;-83
2021/10/26 11:52:01;;;;;;;32.95;17.30;;;13.80;99.90;;;;;;5063442;28;20101;-84
2021/10/26 11:54:39;;;;;;;33.35;17.15;;;13.80;99.90;;;;;;5048443;28;20452;-84
2021/10/26 11:57:07;;;;;;;33.25;16.42;;;13.80;99.90;;;;;;5050632;28;20043;-85
2021/10/26 11:59:36;;;;;;;33.08;17.05;;;13.80;99.90;;;;;;5042245;28;20123;-84
2021/10/26 12:02:15;;;;;;;30.27;17.13;;;13.80;99.90;;;;;;5064777;28;20071;-84
2021/10/26 12:04:54;;;;;;;31.08;16.33;;;13.80;99.90;;;;;;5046435;28;20028;-83
2021/10/26 12:07:23;;;;;;;30.25;16.77;;;13.70;99.90;;;;;;5044318;28;20028;-83
2021/10/26 12:09:53;;;;;;;33.53;17.88;;;13.70;99.90;;;;;;5040064;28;20137;-83
2021/10/26 12:12:30;;;;;;;31.92;17.45;;;13.60;99.90;;;;;;5048640;28;20045;-84
2021/10/26 12:15:00;;;;;;;31.17;17.27;;;13.60;99.90;;;;;;5047916;28;20037;-83
2021/10/26 12:17:35;;;;;;;36.47;19.27;;;13.70;99.90;;;;;;5029916;28;20462;-84
2021/10/26 12:20:06;;;;;;;33.28;18.33;;;13.70;99.90;;;;;;5028688;28;20025;-84
2021/10/26 12:22:35;;;;;;;28.58;17.30;;;13.70;99.90;;;;;;5045591;28;20554;-83
2021/10/26 12:25:18;;;;;;;34.78;18.98;;;13.70;99.90;;;;;;5047230;28;20048;-84
2021/10/26 12:27:48;;;;;;;29.42;18.02;;;13.70;99.90;;;;;;5050782;28;20040;-86
2021/10/26 12:30:29;;;;;;;35.33;19.70;;;13.70;99.90;;;;;;5047564;28;20045;-84
2021/10/26 12:32:58;;;;;;;38.55;21.02;;;13.70;99.90;;;;;;5048373;28;20040;-83
2021/10/26 12:35:26;;;;;;;33.40;19.15;;;13.70;99.90;;;;;;5049096;28;20090;-83
2021/10/26 12:38:16;;;;;;;36.95;20.00;;;13.60;99.90;;;;;;5047734;28;20119;-84
2021/10/26 12:40:47;;;;;;;42.78;20.70;;;13.70;99.90;;;;;;5025783;28;20399;-84
2021/10/26 12:43:22;;;;;;;41.97;20.67;;;13.70;99.90;;;;;;5061551;28;20107;-84
2021/10/26 12:45:53;;;;;;;36.65;21.13;;;13.60;99.90;;;;;;5037891;28;20643;-82
2021/10/26 12:48:21;;;;;;;37.13;20.65;;;13.60;99.90;;;;;;5028635;28;20047;-83